Home > Products > Valid Products > TAF

000
FTUS43 KSGF 311720
TAFJLN
TAF
KJLN 311720Z 3118/0118 22006KT P6SM VCTS BKN035CB
      TEMPO 3123/0103 4SM TSRA OVC025CB
     FM011000 VRB03KT 4SM BR OVC015
     FM011400 27004KT P6SM VCTS OVC030CB=



000
FTUS43 KSGF 311720
TAFSGF
TAF
KSGF 311720Z 3118/0118 16006KT P6SM VCTS BKN035CB
      TEMPO 0100/0104 4SM TSRA OVC025CB
     FM011000 VRB03KT P6SM OVC025
     FM011400 27004KT P6SM -SHRA VCTS OVC030CB=



000
FTUS43 KSGF 311040 AAB
TAFJLN
TAF AMD
KJLN 311040Z 3111/0106 14004KT P6SM VCSH BKN035
     FM311600 18006KT P6SM VCTS BKN035CB
     FM010100 30004KT P6SM VCSH BKN090=



000
FTUS43 KSGF 301723 CCA
TAFJLN
TAF COR
KJLN 301723Z 3018/3118 18006KT P6SM VCTS BKN120CB
      TEMPO 3018/3021 23015G30KT -TSRA SCT010CB BKN020
     FM310300 15005KT P6SM SCT250
     FM311200 16005KT 6SM BR VCTS BKN090CB
     FM311500 16005KT P6SM VCTS OVC015CB=



000
FTUS43 KSGF 301120
TAFJLN
TAF
KJLN 301120Z 3012/3112 VRB03KT P6SM BKN250
     FM301500 17007KT P6SM OVC250
     FM301800 18008KT P6SM VCTS SCT050CB OVC200 PROB30 3021/3022 5SM
      -TSRA SCT030CB BKN050
     FM302300 18006KT P6SM BKN200=



000
FTUS43 KSGF 301120
TAFSGF
TAF
KSGF 301120Z 3012/3112 15005KT P6SM BKN250
     FM302000 18007KT P6SM VCTS SCT050CB BKN250 PROB30 3021/3024 5SM
      -TSRA SCT030CB BKN050
     FM310100 16007KT P6SM BKN200=



000
FTUS43 KSGF 290520
TAFSGF
TAF
KSGF 290520Z 2906/3006 24004KT P6SM SKC
     FM291900 30005KT P6SM SCT250
     FM300100 VRB03KT P6SM SCT250=



    US Dept of Commerce
    National Oceanic and Atmospheric Administration
    National Weather Service
    1325 East West Highway
    Silver Spring, MD 20910
    Page Author: NWS Internet Services Team
Disclaimer
Information Quality
Credits
Glossary
Privacy Policy
Freedom of Information Act (FOIA)
About Us
Career Opportunities